Time;durP1;ratioP1;P1;durP2;ratioP2;P2;SDS_P1;SDS_P2;PMS_P1;PMS_P2;Temp;Humidity;BMP_temperature;BMP_pressure;BME280_temperature;BME280_humidity;BME280_pressure;Samples;Min_cycle;Max_cycle;Signal;HPM_P1;HPM_P2
2022/04/30 00:00:02;;;;;;;;;;;;;;;;;;1021384;28;3729;-55
2022/04/30 00:00:34;;;;;;;;;;;;;;;;;;1020889;28;3622;-56
2022/04/30 00:01:08;;;;;;;;;;;;;;;;;;1016945;28;3966;-56
2022/04/30 00:01:39;;;;;;;;;;;;;;;;;;1019584;28;3718;-56
2022/04/30 00:02:12;;;;;;;;;;;;;;;;;;1017338;28;3570;-55
2022/04/30 00:02:43;;;;;;;;;;;;;;;;;;1020077;28;3828;-57
2022/04/30 00:03:13;;;;;;;;;;;;;;;;;;1020316;28;3706;-54
2022/04/30 00:03:43;;;;;;;;;;;;;;;;;;1021337;28;3900;-55
2022/04/30 00:04:14;;;;;;;;;;;;;;;;;;1025496;28;4600;-54
2022/04/30 00:04:45;;;;;;;;;;;;;;;;;;1028459;28;3528;-56
2022/04/30 00:05:17;;;;;;;;;;;;;;;;;;1027754;28;3553;-56
2022/04/30 00:05:48;;;;;;;;;;;;;;;;;;1027911;28;3933;-54
2022/04/30 00:06:18;;;;;;;;;;;;;;;;;;1027481;28;4294;-58
2022/04/30 00:06:48;;;;;;;;;;;;;;;;;;1025776;28;3512;-58
2022/04/30 00:07:19;;;;;;;;;;;;;;;;;;1025596;28;3631;-55
2022/04/30 00:07:50;;;;;;;;;;;;;;;;;;1024917;28;3782;-54
2022/04/30 00:08:20;;;;;;;;;;;;;;;;;;1025516;28;3667;-56
2022/04/30 00:08:51;;;;;;;;;;;;;;;;;;1028514;28;3809;-58
2022/04/30 00:09:21;;;;;;;;;;;;;;;;;;1029107;28;4756;-54
2022/04/30 00:09:52;;;;;;;;;;;;;;;;;;1027716;28;3631;-57
2022/04/30 00:10:23;;;;;;;;;;;;;;;;;;1027988;28;3600;-55
2022/04/30 00:10:53;;;;;;;;;;;;;;;;;;1027479;28;3784;-57
2022/04/30 00:11:24;;;;;;;;;;;;;;;;;;1028336;28;3567;-55
2022/04/30 00:11:54;;;;;;;;;;;;;;;;;;1028225;28;4372;-55
2022/04/30 00:12:25;;;;;;;;;;;;;;;;;;1029458;28;3887;-53
2022/04/30 00:12:55;;;;;;;;;;;;;;;;;;1028747;28;4034;-52
2022/04/30 00:13:25;;;;;;;;;;;;;;;;;;1029526;28;3761;-50
2022/04/30 00:13:56;;;;;;;;;;;;;;;;;;1028174;28;3705;-52
2022/04/30 00:14:27;;;;;;;;;;;;;;;;;;1029139;28;3661;-49
2022/04/30 00:14:57;;;;;;;;;;;;;;;;;;1026032;28;3645;-53
2022/04/30 00:15:27;;;;;;;;;;;;;;;;;;1026273;28;6266;-53
2022/04/30 00:15:59;;;;;;;;;;;;;;;;;;1024515;28;3550;-51
2022/04/30 00:16:30;;;;;;;;;;;;;;;;;;1023880;28;3609;-50
2022/04/30 00:17:01;;;;;;;;;;;;;;;;;;1028910;28;3516;-52
2022/04/30 00:17:32;;;;;;;;;;;;;;;;;;1028423;28;3708;-49
2022/04/30 00:18:03;;;;;;;;;;;;;;;;;;1026499;28;3763;-49
2022/04/30 00:18:33;;;;;;;;;;;;;;;;;;1025207;28;3583;-54
2022/04/30 00:19:06;;;;;;;;;;;;;;;;;;1026037;28;4625;-50
2022/04/30 00:19:37;;;;;;;;;;;;;;;;;;1026276;28;3690;-52
2022/04/30 00:20:21;;;;;;;;;;;;;;;;;;1025433;28;5968;-52
2022/04/30 00:20:58;;;;;;;;;;;;;;;;;;1021405;28;3531;-50
2022/04/30 00:21:28;;;;;;;;;;;;;;;;;;1021611;28;4171;-53
2022/04/30 00:21:59;;;;;;;;;;;;;;;;;;1024749;28;3822;-53
2022/04/30 00:22:30;;;;;;;;;;;;;;;;;;1022296;28;4147;-53
2022/04/30 00:23:02;;;;;;;;;;;;;;;;;;1021782;28;3483;-51
2022/04/30 00:23:34;;;;;;;;;;;;;;;;;;1019350;28;3702;-51
2022/04/30 00:24:05;;;;;;;;;;;;;;;;;;1016385;28;3589;-52
2022/04/30 00:24:38;;;;;;;;;;;;;;;;;;1017878;28;4819;-51
2022/04/30 00:25:09;;;;;;;;;;;;;;;;;;1013383;29;3757;-53
2022/04/30 00:25:40;;;;;;;;;;;;;;;;;;1014669;28;3655;-49
2022/04/30 00:26:11;;;;;;;;;;;;;;;;;;1016456;28;3568;-50
2022/04/30 00:26:43;;;;;;;;;;;;;;;;;;1015165;29;3586;-50
2022/04/30 00:27:15;;;;;;;;;;;;;;;;;;1015820;29;3445;-51
2022/04/30 00:27:45;;;;;;;;;;;;;;;;;;1014056;29;3569;-53
2022/04/30 00:28:17;;;;;;;;;;;;;;;;;;1018905;28;3698;-51
2022/04/30 00:28:48;;;;;;;;;;;;;;;;;;1024825;28;3610;-51
2022/04/30 00:29:20;;;;;;;;;;;;;;;;;;1026249;28;4780;-51
2022/04/30 00:29:52;;;;;;;;;;;;;;;;;;1021058;28;4658;-53
2022/04/30 00:30:22;;;;;;;;;;;;;;;;;;1022528;28;3436;-52
2022/04/30 00:30:54;;;;;;;;;;;;;;;;;;1017895;28;3877;-52
2022/04/30 00:31:24;;;;;;;;;;;;;;;;;;1022265;28;3552;-55
2022/04/30 00:31:55;;;;;;;;;;;;;;;;;;1025145;28;3717;-51
2022/04/30 00:32:26;;;;;;;;;;;;;;;;;;1025223;28;3650;-49
2022/04/30 00:32:57;;;;;;;;;;;;;;;;;;1025542;28;3750;-52
2022/04/30 00:33:28;;;;;;;;;;;;;;;;;;1019385;28;3494;-53
2022/04/30 00:34:00;;;;;;;;;;;;;;;;;;1021216;28;3489;-49
2022/04/30 00:34:31;;;;;;;;;;;;;;;;;;1016027;29;3591;-52
2022/04/30 00:35:03;;;;;;;;;;;;;;;;;;1018335;28;4056;-50
2022/04/30 00:35:34;;;;;;;;;;;;;;;;;;1016166;28;3784;-54
2022/04/30 00:36:05;;;;;;;;;;;;;;;;;;1016553;28;3654;-52
2022/04/30 00:36:36;;;;;;;;;;;;;;;;;;1016880;29;3655;-51
2022/04/30 00:37:08;;;;;;;;;;;;;;;;;;1015607;28;3562;-53
2022/04/30 00:37:38;;;;;;;;;;;;;;;;;;1014469;29;3960;-52
2022/04/30 00:38:09;;;;;;;;;;;;;;;;;;1014962;29;3532;-53
2022/04/30 00:38:40;;;;;;;;;;;;;;;;;;1018785;28;3697;-52
2022/04/30 00:39:11;;;;;;;;;;;;;;;;;;1025872;28;3750;-53
2022/04/30 00:39:42;;;;;;;;;;;;;;;;;;1029256;28;4020;-51
2022/04/30 00:40:13;;;;;;;;;;;;;;;;;;1025316;28;3599;-52
2022/04/30 00:40:44;;;;;;;;;;;;;;;;;;1025803;28;3557;-50
2022/04/30 00:41:18;;;;;;;;;;;;;;;;;;1023768;28;3996;-52
2022/04/30 00:41:49;;;;;;;;;;;;;;;;;;1016142;28;3650;-53
2022/04/30 00:42:28;;;;;;;;;;;;;;;;;;1017218;28;3555;-50
2022/04/30 00:42:59;;;;;;;;;;;;;;;;;;1012673;29;4711;-52
2022/04/30 00:43:30;;;;;;;;;;;;;;;;;;1016708;28;3866;-52
2022/04/30 00:44:01;;;;;;;;;;;;;;;;;;1017477;28;4859;-50
2022/04/30 00:44:31;;;;;;;;;;;;;;;;;;1017853;28;3729;-52
2022/04/30 00:45:01;;;;;;;;;;;;;;;;;;1021073;28;3661;-49
2022/04/30 00:45:32;;;;;;;;;;;;;;;;;;1020913;28;3726;-51
2022/04/30 00:46:03;;;;;;;;;;;;;;;;;;1018226;28;4214;-51
2022/04/30 00:46:33;;;;;;;;;;;;;;;;;;1014347;28;4240;-52
2022/04/30 00:47:04;;;;;;;;;;;;;;;;;;1021092;28;3622;-50
2022/04/30 00:47:35;;;;;;;;;;;;;;;;;;1020574;28;3762;-51
2022/04/30 00:48:07;;;;;;;;;;;;;;;;;;1023296;28;3797;-51
2022/04/30 00:48:38;;;;;;;;;;;;;;;;;;1017556;28;3783;-51
2022/04/30 00:49:08;;;;;;;;;;;;;;;;;;1018181;28;3472;-52
2022/04/30 00:49:40;;;;;;;;;;;;;;;;;;1019440;28;3439;-53
2022/04/30 00:50:14;;;;;;;;;;;;;;;;;;1018862;28;3556;-51
2022/04/30 00:50:45;;;;;;;;;;;;;;;;;;1022467;28;3598;-52
2022/04/30 00:51:20;;;;;;;;;;;;;;;;;;1016762;28;3646;-51
2022/04/30 00:51:53;;;;;;;;;;;;;;;;;;1017511;28;3545;-51
2022/04/30 00:52:25;;;;;;;;;;;;;;;;;;1008342;29;4121;-54
2022/04/30 00:52:59;;;;;;;;;;;;;;;;;;1021692;28;4002;-52
2022/04/30 00:53:31;;;;;;;;;;;;;;;;;;1018866;28;4827;-53
2022/04/30 00:54:01;;;;;;;;;;;;;;;;;;1017543;28;3481;-53
2022/04/30 00:54:34;;;;;;;;;;;;;;;;;;1016903;28;3825;-54
2022/04/30 00:55:06;;;;;;;;;;;;;;;;;;1019842;28;3582;-51
2022/04/30 00:55:38;;;;;;;;;;;;;;;;;;1021762;28;3618;-53
2022/04/30 00:56:11;;;;;;;;;;;;;;;;;;1017236;28;3686;-51
2022/04/30 00:56:50;;;;;;;;;;;;;;;;;;1009221;29;3732;-52
2022/04/30 00:57:23;;;;;;;;;;;;;;;;;;1008293;29;3466;-52
2022/04/30 00:57:55;;;;;;;;;;;;;;;;;;1012545;28;3629;-54
2022/04/30 00:58:29;;;;;;;;;;;;;;;;;;1019898;28;3833;-50
2022/04/30 00:59:01;;;;;;;;;;;;;;;;;;1018182;28;3607;-51
2022/04/30 00:59:32;;;;;;;;;;;;;;;;;;1014859;29;3783;-53
2022/04/30 01:00:04;;;;;;;;;;;;;;;;;;1013229;29;6229;-52
2022/04/30 01:00:38;;;;;;;;;;;;;;;;;;1015052;28;3699;-52
2022/04/30 01:01:09;;;;;;;;;;;;;;;;;;1021161;28;3719;-53
2022/04/30 01:01:40;;;;;;;;;;;;;;;;;;1013616;29;3999;-51
2022/04/30 01:02:11;;;;;;;;;;;;;;;;;;1013490;29;3932;-53
2022/04/30 01:02:43;;;;;;;;;;;;;;;;;;1018062;28;3584;-53
2022/04/30 01:03:14;;;;;;;;;;;;;;;;;;1009369;29;3713;-52
2022/04/30 01:03:45;;;;;;;;;;;;;;;;;;1019039;28;3588;-52
2022/04/30 01:04:16;;;;;;;;;;;;;;;;;;1020704;28;3696;-53
2022/04/30 01:04:46;;;;;;;;;;;;;;;;;;1021173;28;3591;-51
2022/04/30 01:05:18;;;;;;;;;;;;;;;;;;1021820;28;3631;-52
2022/04/30 01:05:51;;;;;;;;;;;;;;;;;;1020947;28;3563;-50
2022/04/30 01:06:26;;;;;;;;;;;;;;;;;;1021701;28;4710;-52
2022/04/30 01:06:57;;;;;;;;;;;;;;;;;;1022650;28;4199;-51
2022/04/30 01:07:28;;;;;;;;;;;;;;;;;;1025508;28;3515;-52
2022/04/30 01:07:59;;;;;;;;;;;;;;;;;;1025426;28;3648;-53
2022/04/30 01:08:30;;;;;;;;;;;;;;;;;;1025709;28;3721;-52
2022/04/30 01:09:00;;;;;;;;;;;;;;;;;;1029737;28;3648;-51
2022/04/30 01:09:34;;;;;;;;;;;;;;;;;;1029550;28;3638;-53
2022/04/30 01:10:07;;;;;;;;;;;;;;;;;;1024983;28;3580;-54
2022/04/30 01:10:38;;;;;;;;;;;;;;;;;;1018383;28;3672;-53
2022/04/30 01:11:09;;;;;;;;;;;;;;;;;;1017539;28;3542;-51
2022/04/30 01:11:40;;;;;;;;;;;;;;;;;;1020216;28;3725;-52
2022/04/30 01:12:13;;;;;;;;;;;;;;;;;;1019598;28;3651;-52
2022/04/30 01:12:46;;;;;;;;;;;;;;;;;;1016620;28;4445;-51
2022/04/30 01:13:18;;;;;;;;;;;;;;;;;;1015117;28;3605;-53
2022/04/30 01:13:49;;;;;;;;;;;;;;;;;;1019832;28;3556;-52
2022/04/30 01:14:20;;;;;;;;;;;;;;;;;;1020996;28;3457;-52
2022/04/30 01:14:52;;;;;;;;;;;;;;;;;;1021900;28;3567;-54
2022/04/30 01:15:23;;;;;;;;;;;;;;;;;;1021826;28;3678;-50
2022/04/30 01:15:53;;;;;;;;;;;;;;;;;;1023913;28;4591;-52
2022/04/30 01:16:24;;;;;;;;;;;;;;;;;;1025397;28;3640;-52
2022/04/30 01:16:57;;;;;;;;;;;;;;;;;;1022716;28;3594;-53
2022/04/30 01:17:28;;;;;;;;;;;;;;;;;;1020674;28;3731;-54
2022/04/30 01:17:59;;;;;;;;;;;;;;;;;;1020751;28;3540;-52
2022/04/30 01:18:30;;;;;;;;;;;;;;;;;;1017051;28;3814;-52
2022/04/30 01:19:02;;;;;;;;;;;;;;;;;;1024134;28;3682;-52
2022/04/30 01:19:36;;;;;;;;;;;;;;;;;;1018789;28;4603;-53
2022/04/30 01:20:14;;;;;;;;;;;;;;;;;;1022022;28;3563;-50
2022/04/30 01:20:51;;;;;;;;;;;;;;;;;;1025479;28;3706;-53
2022/04/30 01:21:24;;;;;;;;;;;;;;;;;;1023864;28;3501;-54
2022/04/30 01:22:00;;;;;;;;;;;;;;;;;;1017553;28;3918;-53
2022/04/30 01:22:33;;;;;;;;;;;;;;;;;;1018149;28;3792;-50
2022/04/30 01:23:05;;;;;;;;;;;;;;;;;;1019752;28;3638;-54
2022/04/30 01:23:37;;;;;;;;;;;;;;;;;;1024230;28;3672;-53
2022/04/30 01:24:08;;;;;;;;;;;;;;;;;;1018982;28;3559;-55
2022/04/30 01:24:40;;;;;;;;;;;;;;;;;;1013463;29;3491;-52
2022/04/30 01:25:12;;;;;;;;;;;;;;;;;;1010949;29;3655;-54
2022/04/30 01:25:45;;;;;;;;;;;;;;;;;;1015241;29;3754;-51
2022/04/30 01:26:20;;;;;;;;;;;;;;;;;;1022139;28;3902;-54
2022/04/30 01:26:52;;;;;;;;;;;;;;;;;;1026096;28;3826;-53
2022/04/30 01:27:26;;;;;;;;;;;;;;;;;;1025769;28;4023;-54
2022/04/30 01:27:59;;;;;;;;;;;;;;;;;;1024722;28;4395;-54
2022/04/30 01:28:30;;;;;;;;;;;;;;;;;;1026112;28;3828;-52
2022/04/30 01:29:01;;;;;;;;;;;;;;;;;;1025259;28;3805;-52
2022/04/30 01:29:33;;;;;;;;;;;;;;;;;;1023496;28;3789;-52
2022/04/30 01:30:04;;;;;;;;;;;;;;;;;;1029890;28;4202;-52
2022/04/30 01:30:35;;;;;;;;;;;;;;;;;;1026431;28;3782;-50
2022/04/30 01:37:22;;;;;;;;;;;;;;;;;;1025993;28;3513;-50
2022/04/30 01:37:47;;;;;;;;;;;;;;;;;;1033054;28;3577;-52
2022/04/30 01:38:20;;;;;;;;;;;;;;;;;;1030886;28;3690;-51
2022/04/30 01:38:57;;;;;;;;;;;;;;;;;;1029566;28;3526;-50
2022/04/30 01:39:28;;;;;;;;;;;;;;;;;;1029927;28;3704;-53
2022/04/30 01:40:00;;;;;;;;;;;;;;;;;;1031140;28;3782;-50
2022/04/30 01:40:31;;;;;;;;;;;;;;;;;;1026230;28;3578;-50
2022/04/30 01:41:02;;;;;;;;;;;;;;;;;;1024510;28;3979;-53
2022/04/30 01:41:34;;;;;;;;;;;;;;;;;;1017921;28;3751;-53
2022/04/30 01:42:12;;;;;;;;;;;;;;;;;;1017784;28;3526;-52
2022/04/30 01:42:50;;;;;;;;;;;;;;;;;;1025121;28;3759;-54
2022/04/30 01:43:22;;;;;;;;;;;;;;;;;;1029212;28;3732;-51
2022/04/30 01:43:53;;;;;;;;;;;;;;;;;;1025939;28;3596;-51
2022/04/30 01:44:23;;;;;;;;;;;;;;;;;;1025266;28;4019;-53
2022/04/30 01:44:54;;;;;;;;;;;;;;;;;;1021415;28;3769;-53
2022/04/30 01:45:26;;;;;;;;;;;;;;;;;;1020893;28;4243;-52
2022/04/30 01:45:57;;;;;;;;;;;;;;;;;;1025045;28;3612;-51
2022/04/30 01:46:28;;;;;;;;;;;;;;;;;;1022303;28;3511;-49
2022/04/30 01:47:00;;;;;;;;;;;;;;;;;;1021382;28;3565;-52
2022/04/30 01:47:36;;;;;;;;;;;;;;;;;;1022022;28;3568;-54
2022/04/30 01:48:08;;;;;;;;;;;;;;;;;;1021794;28;3978;-50
2022/04/30 01:48:39;;;;;;;;;;;;;;;;;;1021902;28;3484;-50
2022/04/30 01:49:15;;;;;;;;;;;;;;;;;;1018448;28;3548;-52
2022/04/30 01:49:46;;;;;;;;;;;;;;;;;;1025463;28;3814;-51
2022/04/30 01:50:17;;;;;;;;;;;;;;;;;;1026122;28;3707;-53
2022/04/30 01:50:48;;;;;;;;;;;;;;;;;;1023171;28;3593;-53
2022/04/30 01:51:20;;;;;;;;;;;;;;;;;;1021340;28;3779;-54
2022/04/30 01:51:51;;;;;;;;;;;;;;;;;;1021165;28;3822;-55
2022/04/30 01:52:22;;;;;;;;;;;;;;;;;;1017200;28;3556;-53
2022/04/30 01:52:53;;;;;;;;;;;;;;;;;;1025562;28;4375;-53
2022/04/30 01:53:25;;;;;;;;;;;;;;;;;;1026261;28;3583;-51
2022/04/30 01:53:56;;;;;;;;;;;;;;;;;;1018497;28;3777;-52
2022/04/30 01:54:27;;;;;;;;;;;;;;;;;;1017569;28;4070;-52
2022/04/30 01:54:59;;;;;;;;;;;;;;;;;;1016100;28;3564;-52
2022/04/30 01:55:30;;;;;;;;;;;;;;;;;;1016693;28;3586;-50
2022/04/30 01:56:01;;;;;;;;;;;;;;;;;;1020207;28;3713;-54
2022/04/30 01:56:33;;;;;;;;;;;;;;;;;;1016994;28;5809;-53
2022/04/30 01:57:04;;;;;;;;;;;;;;;;;;1017666;28;3614;-52
2022/04/30 01:57:38;;;;;;;;;;;;;;;;;;1021154;28;3610;-49
2022/04/30 01:58:09;;;;;;;;;;;;;;;;;;1017145;28;3863;-53
2022/04/30 01:58:39;;;;;;;;;;;;;;;;;;1022193;28;3945;-53
2022/04/30 01:59:10;;;;;;;;;;;;;;;;;;1024672;28;3734;-51
2022/04/30 01:59:41;;;;;;;;;;;;;;;;;;1020509;28;3490;-53
2022/04/30 02:00:14;;;;;;;;;;;;;;;;;;1021809;28;3505;-51
2022/04/30 02:00:44;;;;;;;;;;;;;;;;;;1021945;28;4192;-52
2022/04/30 02:01:15;;;;;;;;;;;;;;;;;;1015971;28;3691;-51
2022/04/30 02:01:47;;;;;;;;;;;;;;;;;;1020768;28;4161;-53
2022/04/30 02:02:19;;;;;;;;;;;;;;;;;;1025132;28;3646;-51
2022/04/30 02:02:52;;;;;;;;;;;;;;;;;;1028512;28;3601;-53
2022/04/30 02:03:23;;;;;;;;;;;;;;;;;;1029217;28;3434;-53
2022/04/30 02:03:55;;;;;;;;;;;;;;;;;;1024077;28;3489;-51
2022/04/30 02:04:26;;;;;;;;;;;;;;;;;;1012768;29;3972;-52
2022/04/30 02:04:59;;;;;;;;;;;;;;;;;;1020884;28;3570;-54
2022/04/30 02:05:30;;;;;;;;;;;;;;;;;;1020043;28;5242;-52
2022/04/30 02:06:02;;;;;;;;;;;;;;;;;;1020603;28;3729;-51
2022/04/30 02:06:33;;;;;;;;;;;;;;;;;;1020318;28;3429;-51
2022/04/30 02:07:04;;;;;;;;;;;;;;;;;;1025062;28;3704;-52
2022/04/30 02:07:40;;;;;;;;;;;;;;;;;;1024402;28;3785;-53
2022/04/30 02:08:12;;;;;;;;;;;;;;;;;;1022464;28;3740;-53
2022/04/30 02:08:44;;;;;;;;;;;;;;;;;;1020661;28;3722;-51
2022/04/30 02:09:15;;;;;;;;;;;;;;;;;;1019408;28;3972;-52
2022/04/30 02:09:51;;;;;;;;;;;;;;;;;;1018268;29;3614;-54
2022/04/30 02:10:23;;;;;;;;;;;;;;;;;;1013409;29;3623;-54
2022/04/30 02:10:53;;;;;;;;;;;;;;;;;;1017686;28;3596;-52
2022/04/30 02:11:24;;;;;;;;;;;;;;;;;;1018340;28;3708;-50
2022/04/30 02:11:59;;;;;;;;;;;;;;;;;;1017459;28;3777;-54
2022/04/30 02:12:31;;;;;;;;;;;;;;;;;;1025688;28;3537;-56
2022/04/30 02:13:03;;;;;;;;;;;;;;;;;;1027635;28;4092;-51
2022/04/30 02:13:36;;;;;;;;;;;;;;;;;;1020979;28;3622;-51
2022/04/30 02:14:07;;;;;;;;;;;;;;;;;;1017360;29;3740;-53
2022/04/30 02:14:41;;;;;;;;;;;;;;;;;;1017573;28;3519;-51
2022/04/30 02:15:13;;;;;;;;;;;;;;;;;;1023355;28;4185;-55
2022/04/30 02:15:45;;;;;;;;;;;;;;;;;;1026106;28;3723;-49
2022/04/30 02:16:16;;;;;;;;;;;;;;;;;;1020604;28;3611;-52
2022/04/30 02:16:48;;;;;;;;;;;;;;;;;;1017200;28;4145;-53
2022/04/30 02:17:20;;;;;;;;;;;;;;;;;;1017440;28;3573;-52
2022/04/30 02:17:51;;;;;;;;;;;;;;;;;;1015302;28;3829;-53
2022/04/30 02:18:22;;;;;;;;;;;;;;;;;;1016454;28;4061;-52
2022/04/30 02:18:53;;;;;;;;;;;;;;;;;;1024570;28;3843;-53
2022/04/30 02:19:27;;;;;;;;;;;;;;;;;;1021785;28;3744;-55
2022/04/30 02:20:18;;;;;;;;;;;;;;;;;;1025586;28;3807;-52
2022/04/30 02:20:55;;;;;;;;;;;;;;;;;;1022683;28;4589;-53
2022/04/30 02:21:33;;;;;;;;;;;;;;;;;;1016078;28;3431;-49
2022/04/30 02:22:03;;;;;;;;;;;;;;;;;;1017470;28;3587;-50
2022/04/30 02:22:38;;;;;;;;;;;;;;;;;;1026254;28;3576;-53
2022/04/30 02:23:09;;;;;;;;;;;;;;;;;;1028989;28;3832;-52
2022/04/30 02:23:41;;;;;;;;;;;;;;;;;;1027726;28;3836;-51
2022/04/30 02:24:12;;;;;;;;;;;;;;;;;;1025989;28;4038;-54
2022/04/30 02:24:43;;;;;;;;;;;;;;;;;;1012462;29;3579;-53
2022/04/30 02:25:15;;;;;;;;;;;;;;;;;;1016214;28;4169;-53
2022/04/30 02:25:48;;;;;;;;;;;;;;;;;;1020131;28;3579;-54
2022/04/30 02:26:20;;;;;;;;;;;;;;;;;;1023052;28;3518;-52
2022/04/30 02:26:52;;;;;;;;;;;;;;;;;;1028343;28;3525;-53
2022/04/30 02:27:24;;;;;;;;;;;;;;;;;;1028242;28;3990;-52
2022/04/30 02:27:56;;;;;;;;;;;;;;;;;;1023301;28;3731;-51
2022/04/30 02:28:27;;;;;;;;;;;;;;;;;;1019310;28;3641;-53
2022/04/30 02:28:57;;;;;;;;;;;;;;;;;;1019454;28;3553;-53
2022/04/30 02:29:28;;;;;;;;;;;;;;;;;;1023688;28;3753;-51
2022/04/30 02:30:00;;;;;;;;;;;;;;;;;;1020857;28;3678;-53
2022/04/30 02:30:31;;;;;;;;;;;;;;;;;;1020732;28;4102;-51
2022/04/30 02:31:02;;;;;;;;;;;;;;;;;;1024782;28;3704;-51
2022/04/30 02:31:34;;;;;;;;;;;;;;;;;;1024646;28;3584;-50
2022/04/30 02:32:06;;;;;;;;;;;;;;;;;;1017082;28;4064;-52
2022/04/30 02:32:48;;;;;;;;;;;;;;;;;;1018256;28;4406;-53
2022/04/30 02:33:20;;;;;;;;;;;;;;;;;;1011996;29;3826;-52
2022/04/30 02:33:51;;;;;;;;;;;;;;;;;;1018097;28;3698;-52
2022/04/30 02:34:22;;;;;;;;;;;;;;;;;;1017345;28;3976;-49
2022/04/30 02:34:52;;;;;;;;;;;;;;;;;;1017059;28;3678;-53
2022/04/30 02:35:26;;;;;;;;;;;;;;;;;;1013857;28;3519;-53
2022/04/30 02:35:58;;;;;;;;;;;;;;;;;;1008741;29;3682;-53
2022/04/30 02:36:30;;;;;;;;;;;;;;;;;;1015344;28;4021;-50
2022/04/30 02:37:03;;;;;;;;;;;;;;;;;;1018422;28;3789;-53
2022/04/30 02:37:35;;;;;;;;;;;;;;;;;;1025675;28;3740;-54
2022/04/30 02:38:08;;;;;;;;;;;;;;;;;;1023873;28;4471;-53
2022/04/30 02:38:41;;;;;;;;;;;;;;;;;;1025648;28;4301;-54
2022/04/30 02:39:11;;;;;;;;;;;;;;;;;;1025308;28;3791;-53
2022/04/30 02:39:48;;;;;;;;;;;;;;;;;;1025524;28;3797;-48
2022/04/30 02:40:19;;;;;;;;;;;;;;;;;;1028888;28;3549;-52
2022/04/30 02:40:50;;;;;;;;;;;;;;;;;;1029737;28;3847;-53
2022/04/30 02:41:47;;;;;;;;;;;;;;;;;;1024580;28;4832;-53
2022/04/30 02:42:25;;;;;;;;;;;;;;;;;;1024877;28;4340;-52
2022/04/30 02:43:06;;;;;;;;;;;;;;;;;;1022578;28;3731;-51
2022/04/30 02:43:38;;;;;;;;;;;;;;;;;;1017628;28;3667;-50
2022/04/30 02:44:08;;;;;;;;;;;;;;;;;;1011270;29;3630;-51
2022/04/30 02:44:45;;;;;;;;;;;;;;;;;;1013157;29;5955;-51
2022/04/30 02:45:15;;;;;;;;;;;;;;;;;;1017475;28;3459;-50
2022/04/30 02:45:47;;;;;;;;;;;;;;;;;;1026079;28;4278;-50
2022/04/30 02:46:19;;;;;;;;;;;;;;;;;;1028596;28;3766;-54
2022/04/30 02:46:50;;;;;;;;;;;;;;;;;;1028471;28;3601;-53
2022/04/30 02:47:20;;;;;;;;;;;;;;;;;;1028941;28;3792;-50
2022/04/30 02:47:53;;;;;;;;;;;;;;;;;;1027392;28;4282;-53
2022/04/30 02:48:23;;;;;;;;;;;;;;;;;;1028949;28;3624;-54
2022/04/30 02:48:54;;;;;;;;;;;;;;;;;;1028548;28;3519;-49
2022/04/30 02:49:25;;;;;;;;;;;;;;;;;;1028047;28;4586;-53
2022/04/30 02:49:55;;;;;;;;;;;;;;;;;;1028492;28;3549;-53
2022/04/30 02:50:25;;;;;;;;;;;;;;;;;;1028226;28;3998;-52
2022/04/30 02:50:59;;;;;;;;;;;;;;;;;;1027853;28;3862;-52
2022/04/30 02:51:29;;;;;;;;;;;;;;;;;;1028096;28;3587;-55
2022/04/30 02:51:59;;;;;;;;;;;;;;;;;;1030312;28;3649;-53
2022/04/30 02:52:29;;;;;;;;;;;;;;;;;;1028400;28;3522;-53
2022/04/30 02:53:00;;;;;;;;;;;;;;;;;;1028175;28;3520;-54
2022/04/30 02:53:30;;;;;;;;;;;;;;;;;;1028972;28;3988;-54
2022/04/30 02:54:00;;;;;;;;;;;;;;;;;;1028242;28;4964;-53
2022/04/30 02:54:34;;;;;;;;;;;;;;;;;;1028376;28;3675;-54
2022/04/30 02:55:04;;;;;;;;;;;;;;;;;;1028089;28;3981;-52
2022/04/30 02:55:35;;;;;;;;;;;;;;;;;;1029061;28;3702;-51
2022/04/30 02:56:05;;;;;;;;;;;;;;;;;;1028991;28;3548;-55
2022/04/30 02:56:35;;;;;;;;;;;;;;;;;;1024617;28;3939;-51
2022/04/30 02:57:06;;;;;;;;;;;;;;;;;;1025768;28;3725;-51
2022/04/30 02:59:53;;;;;;;;;;;;;;;;;;1023133;28;3525;-54
2022/04/30 03:00:08;;;;;;;;;;;;;;;;;;1028491;28;3492;-51
2022/04/30 03:00:40;;;;;;;;;;;;;;;;;;1025689;28;3570;-54
2022/04/30 03:01:10;;;;;;;;;;;;;;;;;;1026426;28;3968;-53
2022/04/30 03:01:40;;;;;;;;;;;;;;;;;;1025535;28;3667;-52
2022/04/30 03:02:11;;;;;;;;;;;;;;;;;;1026550;28;3824;-54
2022/04/30 03:02:41;;;;;;;;;;;;;;;;;;1029004;28;3566;-54
2022/04/30 03:03:13;;;;;;;;;;;;;;;;;;1028287;28;3744;-52
2022/04/30 03:03:44;;;;;;;;;;;;;;;;;;1028183;28;3587;-53
2022/04/30 03:04:14;;;;;;;;;;;;;;;;;;1024956;28;3712;-52
2022/04/30 03:04:44;;;;;;;;;;;;;;;;;;1021375;28;3909;-51
2022/04/30 03:05:14;;;;;;;;;;;;;;;;;;1016481;28;4188;-53
2022/04/30 03:05:47;;;;;;;;;;;;;;;;;;1017387;28;3739;-50
2022/04/30 03:06:18;;;;;;;;;;;;;;;;;;1021262;28;3797;-54
2022/04/30 03:06:48;;;;;;;;;;;;;;;;;;1022445;28;3637;-53
2022/04/30 03:07:22;;;;;;;;;;;;;;;;;;1023789;28;3716;-53
2022/04/30 03:07:53;;;;;;;;;;;;;;;;;;1024561;28;4039;-49
2022/04/30 03:08:25;;;;;;;;;;;;;;;;;;1024504;28;4177;-54
2022/04/30 03:08:55;;;;;;;;;;;;;;;;;;1028621;28;3596;-55
2022/04/30 03:09:25;;;;;;;;;;;;;;;;;;1028408;28;3660;-49
2022/04/30 03:09:55;;;;;;;;;;;;;;;;;;1028091;28;4197;-51
2022/04/30 03:10:26;;;;;;;;;;;;;;;;;;1028196;28;3585;-48
2022/04/30 03:10:56;;;;;;;;;;;;;;;;;;1028729;28;4230;-54
2022/04/30 03:11:27;;;;;;;;;;;;;;;;;;1029024;28;3776;-52
2022/04/30 03:11:58;;;;;;;;;;;;;;;;;;1026818;28;3445;-52
2022/04/30 03:12:28;;;;;;;;;;;;;;;;;;1027445;28;4931;-51
2022/04/30 03:12:58;;;;;;;;;;;;;;;;;;1028914;28;3827;-53
2022/04/30 03:13:29;;;;;;;;;;;;;;;;;;1028177;28;4185;-51
2022/04/30 03:14:00;;;;;;;;;;;;;;;;;;1027046;28;3959;-53
2022/04/30 03:14:30;;;;;;;;;;;;;;;;;;1027920;28;4082;-52
2022/04/30 03:15:00;;;;;;;;;;;;;;;;;;1027677;28;3531;-51
2022/04/30 03:15:31;;;;;;;;;;;;;;;;;;1028133;28;3826;-54
2022/04/30 03:21:51;;;;;;;;;;;;;;;;;;1027337;28;3864;-53
2022/04/30 03:22:21;;;;;;;;;;;;;;;;;;1028372;28;3533;-52
2022/04/30 03:22:51;;;;;;;;;;;;;;;;;;1028271;28;4810;-50
2022/04/30 03:23:22;;;;;;;;;;;;;;;;;;1028039;28;4026;-55
2022/04/30 03:23:52;;;;;;;;;;;;;;;;;;1028152;28;3735;-54
2022/04/30 03:24:22;;;;;;;;;;;;;;;;;;1028466;28;3883;-49
2022/04/30 03:24:53;;;;;;;;;;;;;;;;;;1029006;28;3680;-56
2022/04/30 03:25:23;;;;;;;;;;;;;;;;;;1028986;28;3523;-51
2022/04/30 03:25:53;;;;;;;;;;;;;;;;;;1028538;28;3686;-53
2022/04/30 03:26:26;;;;;;;;;;;;;;;;;;1027601;28;4195;-51
2022/04/30 03:26:57;;;;;;;;;;;;;;;;;;1028309;28;3998;-51
2022/04/30 03:27:27;;;;;;;;;;;;;;;;;;1027955;28;3915;-54
2022/04/30 03:27:57;;;;;;;;;;;;;;;;;;1025304;28;3554;-55
2022/04/30 03:28:28;;;;;;;;;;;;;;;;;;1024498;28;3851;-54
2022/04/30 03:28:58;;;;;;;;;;;;;;;;;;1025804;28;4310;-54
2022/04/30 03:29:28;;;;;;;;;;;;;;;;;;1024312;28;3500;-51
2022/04/30 03:29:59;;;;;;;;;;;;;;;;;;1029176;28;3638;-52
2022/04/30 03:30:29;;;;;;;;;;;;;;;;;;1029006;28;4143;-49
2022/04/30 03:31:00;;;;;;;;;;;;;;;;;;1029071;28;3771;-55
2022/04/30 03:31:31;;;;;;;;;;;;;;;;;;1025316;28;4220;-50
2022/04/30 03:32:01;;;;;;;;;;;;;;;;;;1024686;28;3835;-52
2022/04/30 03:32:32;;;;;;;;;;;;;;;;;;1025404;28;4064;-50
2022/04/30 03:33:02;;;;;;;;;;;;;;;;;;1025593;28;3624;-52
2022/04/30 03:33:33;;;;;;;;;;;;;;;;;;1029240;28;3558;-54
2022/04/30 03:34:03;;;;;;;;;;;;;;;;;;1026768;28;4111;-54
2022/04/30 03:34:34;;;;;;;;;;;;;;;;;;1028909;28;3671;-52
2022/04/30 03:35:04;;;;;;;;;;;;;;;;;;1028261;28;3648;-51
2022/04/30 03:35:37;;;;;;;;;;;;;;;;;;1029235;28;3555;-50
2022/04/30 03:36:09;;;;;;;;;;;;;;;;;;1023860;28;3815;-53
2022/04/30 03:36:40;;;;;;;;;;;;;;;;;;1025332;28;3498;-51
2022/04/30 03:37:10;;;;;;;;;;;;;;;;;;1024172;28;3529;-51
2022/04/30 03:37:41;;;;;;;;;;;;;;;;;;1025157;28;3657;-51
2022/04/30 03:38:11;;;;;;;;;;;;;;;;;;1028903;28;3531;-55
2022/04/30 03:38:48;;;;;;;;;;;;;;;;;;1028693;28;3911;-53
2022/04/30 03:39:18;;;;;;;;;;;;;;;;;;1028232;28;3725;-53
2022/04/30 03:39:49;;;;;;;;;;;;;;;;;;1028014;28;3724;-52
2022/04/30 03:40:19;;;;;;;;;;;;;;;;;;1029052;28;3688;-52
2022/04/30 03:40:49;;;;;;;;;;;;;;;;;;1028238;28;3666;-52
2022/04/30 03:41:19;;;;;;;;;;;;;;;;;;1028653;28;3772;-55
2022/04/30 03:41:50;;;;;;;;;;;;;;;;;;1027160;28;6093;-54
2022/04/30 03:42:20;;;;;;;;;;;;;;;;;;1028607;28;3706;-53
2022/04/30 03:42:50;;;;;;;;;;;;;;;;;;1021615;28;3768;-54
2022/04/30 03:43:20;;;;;;;;;;;;;;;;;;1021282;28;3658;-53
2022/04/30 03:43:51;;;;;;;;;;;;;;;;;;1022004;28;3612;-54
2022/04/30 03:44:21;;;;;;;;;;;;;;;;;;1021169;28;4344;-53
2022/04/30 03:44:53;;;;;;;;;;;;;;;;;;1027322;28;3481;-51
2022/04/30 03:45:23;;;;;;;;;;;;;;;;;;1028072;28;3506;-54
2022/04/30 03:45:53;;;;;;;;;;;;;;;;;;1029105;28;4875;-54
2022/04/30 03:46:24;;;;;;;;;;;;;;;;;;1028170;28;3532;-53
2022/04/30 03:46:54;;;;;;;;;;;;;;;;;;1028906;28;3566;-54
2022/04/30 03:47:24;;;;;;;;;;;;;;;;;;1027537;28;3731;-53
2022/04/30 03:47:54;;;;;;;;;;;;;;;;;;1030272;28;3699;-53
2022/04/30 03:48:25;;;;;;;;;;;;;;;;;;1029252;28;3787;-52
2022/04/30 03:48:56;;;;;;;;;;;;;;;;;;1029161;28;3504;-50
2022/04/30 03:49:26;;;;;;;;;;;;;;;;;;1029611;28;3759;-54
2022/04/30 03:49:59;;;;;;;;;;;;;;;;;;1029387;28;3721;-54
2022/04/30 03:50:29;;;;;;;;;;;;;;;;;;1030214;28;3866;-51
2022/04/30 03:50:59;;;;;;;;;;;;;;;;;;1029331;28;3750;-51
2022/04/30 03:51:30;;;;;;;;;;;;;;;;;;1030055;28;4711;-52
2022/04/30 03:52:00;;;;;;;;;;;;;;;;;;1028512;28;5735;-53
2022/04/30 03:52:31;;;;;;;;;;;;;;;;;;1029686;28;3829;-52
2022/04/30 03:53:01;;;;;;;;;;;;;;;;;;1028588;28;3489;-51
2022/04/30 03:53:31;;;;;;;;;;;;;;;;;;1029844;28;4123;-52
2022/04/30 03:54:02;;;;;;;;;;;;;;;;;;1030111;28;3625;-54